Time;durP1;ratioP1;P1;durP2;ratioP2;P2;SDS_P1;SDS_P2;PMS_P1;PMS_P2;Temp;Humidity;BMP_temperature;BMP_pressure;BME280_temperature;BME280_humidity;BME280_pressure;Samples;Min_cycle;Max_cycle;Signal;HPM_P1;HPM_P2
2022/05/08 00:02:33;;;;;;;3.72;2.80;;;;;;;;;;10470875;28;20038;-73
2022/05/08 00:07:34;;;;;;;6.35;2.78;;;;;;;;;;10470187;28;20057;-74
2022/05/08 00:12:35;;;;;;;8.65;3.33;;;;;;;;;;10470273;28;20111;-74
2022/05/08 00:17:36;;;;;;;9.15;2.60;;;;;;;;;;10470360;28;20032;-73
2022/05/08 00:22:42;;;;;;;10.05;4.20;;;;;;;;;;10470142;28;20024;-74
2022/05/08 00:27:42;;;;;;;3.65;2.70;;;;;;;;;;10453110;28;20039;-77
2022/05/08 00:32:42;;;;;;;4.53;3.00;;;;;;;;;;10469234;28;20243;-71
2022/05/08 00:37:43;;;;;;;6.90;3.28;;;;;;;;;;10469422;28;20048;-71
2022/05/08 00:42:43;;;;;;;6.22;3.15;;;;;;;;;;10469036;28;20024;-72
2022/05/08 00:47:43;;;;;;;7.97;3.50;;;;;;;;;;10486868;28;20175;-73
2022/05/08 00:52:44;;;;;;;4.60;3.47;;;;;;;;;;10469105;28;20028;-71
2022/05/08 00:57:44;;;;;;;6.10;3.13;;;;;;;;;;10486797;28;20032;-75
2022/05/08 01:02:46;;;;;;;4.88;3.05;;;;;;;;;;10468407;28;20012;-72
2022/05/08 01:07:46;;;;;;;6.88;3.33;;;;;;;;;;10467843;28;20025;-73
2022/05/08 01:12:47;;;;;;;4.90;3.15;;;;;;;;;;10468218;28;20050;-78
2022/05/08 01:17:49;;;;;;;4.13;2.83;;;;;;;;;;10467926;28;20025;-75
2022/05/08 01:22:49;;;;;;;5.30;3.63;;;;;;;;;;10468184;28;20035;-71
2022/05/08 01:27:49;;;;;;;5.88;3.45;;;;;;;;;;10485770;28;20031;-71
2022/05/08 01:32:49;;;;;;;6.47;3.20;;;;;;;;;;10485843;28;20025;-72
2022/05/08 01:37:50;;;;;;;9.55;3.03;;;;;;;;;;10467748;28;20016;-70
2022/05/08 01:42:50;;;;;;;7.80;3.50;;;;;;;;;;10467600;28;20025;-70
2022/05/08 01:53:10;;;;;;;4.95;3.25;;;;;;;;;;10486554;28;20043;-74
2022/05/08 01:58:10;;;;;;;7.03;3.35;;;;;;;;;;10485306;28;20122;-71
2022/05/08 02:03:11;;;;;;;6.65;3.35;;;;;;;;;;10467379;28;20021;-71
2022/05/08 02:08:12;;;;;;;12.23;3.88;;;;;;;;;;10467080;28;20016;-74
2022/05/08 02:13:13;;;;;;;6.93;4.15;;;;;;;;;;10466647;28;20032;-74
2022/05/08 02:18:13;;;;;;;9.93;3.93;;;;;;;;;;10467273;28;20048;-75
2022/05/08 02:23:13;;;;;;;8.87;3.60;;;;;;;;;;10473733;28;20392;-73
2022/05/08 02:28:14;;;;;;;8.30;2.88;;;;;;;;;;10474525;28;20803;-72
2022/05/08 02:33:14;;;;;;;7.00;3.57;;;;;;;;;;10474468;28;20020;-73
2022/05/08 02:38:14;;;;;;;5.68;3.78;;;;;;;;;;10474003;28;20265;-71
2022/05/08 02:43:17;;;;;;;8.10;3.28;;;;;;;;;;10491951;28;20048;-77
2022/05/08 02:48:18;;;;;;;6.55;3.25;;;;;;;;;;10473637;28;20153;-71
2022/05/08 02:53:20;;;;;;;11.50;3.65;;;;;;;;;;10473688;28;20082;-72
2022/05/08 02:58:32;;;;;;;5.65;3.78;;;;;;;;;;10473424;28;20048;-70
2022/05/08 03:03:33;;;;;;;7.32;3.42;;;;;;;;;;10472891;28;20029;-71
2022/05/08 03:08:33;;;;;;;7.05;3.72;;;;;;;;;;10491533;28;20569;-72
2022/05/08 03:13:37;;;;;;;6.77;3.77;;;;;;;;;;10472445;28;20020;-71
2022/05/08 03:18:41;;;;;;;6.47;3.38;;;;;;;;;;10490456;28;20024;-71
2022/05/08 03:23:42;;;;;;;8.50;3.92;;;;;;;;;;10472394;28;20483;-70
2022/05/08 03:28:42;;;;;;;8.25;3.58;;;;;;;;;;10472622;28;20025;-71
2022/05/08 03:33:44;;;;;;;4.35;3.47;;;;;;;;;;10489039;28;20428;-71
2022/05/08 03:38:45;;;;;;;9.13;4.20;;;;;;;;;;10471753;28;20028;-71
2022/05/08 03:43:46;;;;;;;5.82;3.00;;;;;;;;;;10471606;28;20021;-70
2022/05/08 03:48:47;;;;;;;13.20;4.78;;;;;;;;;;10471020;28;20044;-69
2022/05/08 03:53:47;;;;;;;9.07;4.60;;;;;;;;;;10471074;28;20029;-70
2022/05/08 03:58:47;;;;;;;6.28;3.45;;;;;;;;;;10471088;28;20020;-76
2022/05/08 04:03:47;;;;;;;10.75;4.47;;;;;;;;;;10470772;28;20112;-70
2022/05/08 04:08:48;;;;;;;5.18;3.40;;;;;;;;;;10470840;28;20618;-71
2022/05/08 04:13:48;;;;;;;7.55;3.90;;;;;;;;;;10470072;28;20025;-71
2022/05/08 04:18:48;;;;;;;5.07;3.40;;;;;;;;;;10469948;28;20119;-72
2022/05/08 04:29:07;;;;;;;11.63;3.70;;;;;;;;;;10488523;28;20017;-74
2022/05/08 04:34:08;;;;;;;6.15;3.50;;;;;;;;;;10469656;28;20020;-70
2022/05/08 04:39:08;;;;;;;6.32;3.65;;;;;;;;;;10469276;28;20024;-71
2022/05/08 04:44:08;;;;;;;7.00;3.10;;;;;;;;;;10486095;28;20098;-71
2022/05/08 04:49:08;;;;;;;3.77;3.23;;;;;;;;;;10469355;28;20035;-71
2022/05/08 04:54:09;;;;;;;7.53;3.60;;;;;;;;;;10469277;28;20024;-71
2022/05/08 04:59:09;;;;;;;5.40;2.90;;;;;;;;;;10468051;28;20017;-73
2022/05/08 05:04:10;;;;;;;6.25;2.58;;;;;;;;;;10467121;28;20021;-75
2022/05/08 05:09:10;;;;;;;5.82;2.90;;;;;;;;;;10467247;28;20022;-72
2022/05/08 05:14:10;;;;;;;11.00;3.93;;;;;;;;;;10466411;28;20024;-72
2022/05/08 05:19:10;;;;;;;4.70;3.40;;;;;;;;;;10467111;28;20017;-72
2022/05/08 05:24:11;;;;;;;6.45;3.40;;;;;;;;;;10467075;28;20074;-73
2022/05/08 05:29:11;;;;;;;8.77;4.18;;;;;;;;;;10466830;28;20016;-70
2022/05/08 05:34:12;;;;;;;8.93;4.03;;;;;;;;;;10466953;28;20547;-74
2022/05/08 05:39:12;;;;;;;11.15;4.13;;;;;;;;;;10484044;28;20016;-73
2022/05/08 05:44:13;;;;;;;8.80;3.63;;;;;;;;;;10466240;28;20067;-72
2022/05/08 05:49:13;;;;;;;9.00;3.50;;;;;;;;;;10485956;28;20535;-72
2022/05/08 05:54:13;;;;;;;7.07;3.58;;;;;;;;;;10467864;28;20093;-71
2022/05/08 05:59:13;;;;;;;7.60;3.47;;;;;;;;;;10475019;28;20481;-72
2022/05/08 06:04:14;;;;;;;5.85;3.75;;;;;;;;;;10465130;28;20039;-73
2022/05/08 06:09:14;;;;;;;7.83;2.63;;;;;;;;;;10491540;28;20111;-71
2022/05/08 06:14:15;;;;;;;9.13;2.57;;;;;;;;;;10473552;28;20441;-71
2022/05/08 06:19:15;;;;;;;6.50;2.80;;;;;;;;;;10474421;28;20468;-75
2022/05/08 06:24:15;;;;;;;8.47;2.97;;;;;;;;;;10478522;28;20465;-71
2022/05/08 06:29:15;;;;;;;6.72;2.60;;;;;;;;;;10489072;28;20503;-72
2022/05/08 06:34:16;;;;;;;10.93;2.58;;;;;;;;;;10475148;28;20187;-72
2022/05/08 06:39:16;;;;;;;11.77;2.60;;;;;;;;;;10480607;28;20023;-67
2022/05/08 06:44:23;;;;;;;3.38;2.22;;;;;;;;;;10492161;28;20613;-73
2022/05/08 06:49:23;;;;;;;8.77;2.20;;;;;;;;;;10500922;28;20024;-72
2022/05/08 06:54:26;;;;;;;7.28;3.17;;;;;;;;;;10494009;28;20403;-71
2022/05/08 07:04:45;;;;;;;8.07;2.78;;;;;;;;;;10509901;28;20024;-70
2022/05/08 07:09:45;;;;;;;4.57;3.00;;;;;;;;;;10488290;28;20024;-73
2022/05/08 07:14:46;;;;;;;6.47;2.78;;;;;;;;;;10478700;28;20029;-71
2022/05/08 07:19:46;;;;;;;23.85;6.13;;;;;;;;;;10507807;28;20038;-69
2022/05/08 07:24:46;;;;;;;9.90;2.95;;;;;;;;;;10490286;28;20127;-71
2022/05/08 07:29:47;;;;;;;12.43;2.65;;;;;;;;;;10507005;28;20031;-68
2022/05/08 07:40:07;;;;;;;6.07;2.70;;;;;;;;;;10488247;28;20008;-75
2022/05/08 07:45:07;;;;;;;6.53;2.50;;;;;;;;;;10483820;28;20036;-77
2022/05/08 07:50:08;;;;;;;3.72;2.00;;;;;;;;;;10478385;28;20021;-70
2022/05/08 07:55:08;;;;;;;6.78;1.92;;;;;;;;;;10477386;28;20496;-68
2022/05/08 08:00:09;;;;;;;6.17;2.37;;;;;;;;;;10469311;28;20115;-76
2022/05/08 08:05:09;;;;;;;10.35;1.83;;;;;;;;;;10465408;28;20027;-74
2022/05/08 08:10:09;;;;;;;4.45;2.15;;;;;;;;;;10482502;28;20054;-76
2022/05/08 08:15:09;;;;;;;13.48;1.92;;;;;;;;;;10482926;28;20480;-75
2022/05/08 08:20:10;;;;;;;4.20;1.83;;;;;;;;;;10483146;28;20012;-74
2022/05/08 08:25:10;;;;;;;5.88;1.90;;;;;;;;;;10482708;28;20348;-76
2022/05/08 08:30:11;;;;;;;3.33;1.63;;;;;;;;;;10482859;28;20023;-73
2022/05/08 08:35:11;;;;;;;3.40;1.98;;;;;;;;;;10484406;28;20020;-74
2022/05/08 08:40:12;;;;;;;2.45;1.50;;;;;;;;;;10484988;28;20033;-69
2022/05/08 08:50:32;;;;;;;3.88;2.17;;;;;;;;;;10485450;28;20368;-68
2022/05/08 08:55:32;;;;;;;4.15;2.05;;;;;;;;;;10467476;28;20024;-70
2022/05/08 09:00:33;;;;;;;5.72;1.67;;;;;;;;;;10485912;28;20020;-72
2022/05/08 09:05:34;;;;;;;3.63;1.50;;;;;;;;;;10484860;28;20141;-76
2022/05/08 09:10:38;;;;;;;9.75;1.80;;;;;;;;;;10485398;28;20267;-73
2022/05/08 09:15:38;;;;;;;3.83;2.35;;;;;;;;;;10466738;28;20016;-74
2022/05/08 09:20:40;;;;;;;4.40;2.05;;;;;;;;;;10478796;28;20023;-74
2022/05/08 09:25:53;;;;;;;5.82;1.98;;;;;;;;;;10491834;28;20052;-73
2022/05/08 09:30:56;;;;;;;3.20;2.08;;;;;;;;;;10507612;28;20024;-72
2022/05/08 09:35:57;;;;;;;4.13;1.45;;;;;;;;;;10509036;28;20048;-74
2022/05/08 09:41:04;;;;;;;13.07;1.92;;;;;;;;;;10507791;28;20566;-72
2022/05/08 09:46:04;;;;;;;2.08;1.20;;;;;;;;;;10508060;28;20052;-68
2022/05/08 09:51:06;;;;;;;3.78;1.17;;;;;;;;;;10508042;28;20020;-68
2022/05/08 09:56:07;;;;;;;3.58;1.33;;;;;;;;;;10508419;28;20107;-70
2022/05/08 10:01:08;;;;;;;2.28;1.50;;;;;;;;;;10506825;28;20058;-72
2022/05/08 10:06:09;;;;;;;7.55;1.67;;;;;;;;;;10508890;28;20108;-74
2022/05/08 10:16:47;;;;;;;1.73;0.93;;;;;;;;;;10483343;28;20086;-72
2022/05/08 10:22:13;;;;;;;1.80;1.10;;;;;;;;;;10482703;28;20016;-74
2022/05/08 10:27:16;;;;;;;4.30;1.20;;;;;;;;;;10482062;28;20542;-74
2022/05/08 10:32:32;;;;;;;1.92;1.10;;;;;;;;;;10481627;28;20047;-75
2022/05/08 10:37:33;;;;;;;2.10;1.10;;;;;;;;;;10481770;28;20441;-69
2022/05/08 10:42:33;;;;;;;2.33;1.23;;;;;;;;;;10484330;28;20521;-69
2022/05/08 10:52:41;;;;;;;1.80;1.00;;;;;;;;;;10406769;28;20113;-69
2022/05/08 10:57:42;;;;;;;2.83;1.50;;;;;;;;;;10389766;28;20033;-69
2022/05/08 11:02:43;;;;;;;3.30;1.60;;;;;;;;;;10389138;28;20519;-71
2022/05/08 11:07:48;;;;;;;4.22;1.63;;;;;;;;;;10390697;28;20013;-69
2022/05/08 11:13:09;;;;;;;2.85;1.70;;;;;;;;;;10407002;28;20469;-70
2022/05/08 11:18:10;;;;;;;4.70;2.05;;;;;;;;;;10406078;28;20026;-74
2022/05/08 11:23:10;;;;;;;6.23;1.97;;;;;;;;;;10403909;28;20022;-74
2022/05/08 11:28:15;;;;;;;1.77;1.20;;;;;;;;;;10403582;28;20025;-73
2022/05/08 11:38:44;;;;;;;6.13;1.98;;;;;;;;;;10405383;28;20085;-73
2022/05/08 11:43:45;;;;;;;3.90;1.77;;;;;;;;;;10387196;28;20037;-73
2022/05/08 11:48:47;;;;;;;5.25;1.35;;;;;;;;;;10445578;28;20646;-75
2022/05/08 11:53:51;;;;;;;6.72;1.60;;;;;;;;;;10444553;28;20798;-73
2022/05/08 11:58:51;;;;;;;1.27;1.17;;;;;;;;;;10461437;28;20029;-69
2022/05/08 12:03:52;;;;;;;1.80;1.13;;;;;;;;;;10445055;28;20416;-69
2022/05/08 12:08:52;;;;;;;1.55;1.10;;;;;;;;;;10426911;28;20056;-73
2022/05/08 12:14:03;;;;;;;1.33;1.13;;;;;;;;;;10484356;28;20107;-74
2022/05/08 12:19:15;;;;;;;1.25;0.98;;;;;;;;;;10485301;28;20055;-72
2022/05/08 12:24:19;;;;;;;1.63;1.13;;;;;;;;;;10484710;28;20024;-71
2022/05/08 12:29:21;;;;;;;7.10;1.52;;;;;;;;;;10485004;28;20020;-75
2022/05/08 12:34:21;;;;;;;2.72;0.90;;;;;;;;;;10484611;28;20024;-75
2022/05/08 12:39:21;;;;;;;5.63;1.92;;;;;;;;;;10484089;28;20020;-74
2022/05/08 12:44:22;;;;;;;12.15;4.07;;;;;;;;;;10490053;28;20043;-68
2022/05/08 12:49:22;;;;;;;5.70;1.20;;;;;;;;;;10509424;28;20032;-74
2022/05/08 12:54:22;;;;;;;4.25;1.40;;;;;;;;;;10472514;28;20043;-74
2022/05/08 13:04:42;;;;;;;1.63;1.10;;;;;;;;;;10487759;28;20448;-71
2022/05/08 13:09:45;;;;;;;2.22;1.10;;;;;;;;;;10469795;28;20025;-70
2022/05/08 13:14:46;;;;;;;1.52;1.40;;;;;;;;;;10469193;28;20032;-74
2022/05/08 13:19:46;;;;;;;2.58;1.35;;;;;;;;;;10485171;28;20646;-72
2022/05/08 13:24:46;;;;;;;6.73;1.63;;;;;;;;;;10485545;28;20039;-73
2022/05/08 13:29:46;;;;;;;1.58;1.27;;;;;;;;;;10485793;28;20043;-71
2022/05/08 13:34:47;;;;;;;5.78;1.08;;;;;;;;;;10480548;28;20031;-73
2022/05/08 13:39:47;;;;;;;1.38;0.95;;;;;;;;;;10486573;28;20557;-75
2022/05/08 13:44:47;;;;;;;1.30;1.00;;;;;;;;;;10488205;28;20426;-75
2022/05/08 13:49:48;;;;;;;2.65;1.30;;;;;;;;;;10493679;28;20032;-72
2022/05/08 13:54:48;;;;;;;6.73;1.40;;;;;;;;;;10485876;28;20027;-79
2022/05/08 13:59:48;;;;;;;4.78;1.50;;;;;;;;;;10486503;28;20641;-74
2022/05/08 14:04:52;;;;;;;3.05;1.25;;;;;;;;;;10502390;28;20027;-75
2022/05/08 14:09:53;;;;;;;1.98;0.90;;;;;;;;;;10487138;28;20514;-77
2022/05/08 14:14:54;;;;;;;2.92;1.20;;;;;;;;;;10505710;28;20020;-76
2022/05/08 14:19:54;;;;;;;1.57;1.13;;;;;;;;;;10490809;28;20021;-81
2022/05/08 14:24:54;;;;;;;3.05;1.35;;;;;;;;;;10495416;28;20034;-75
2022/05/08 14:29:56;;;;;;;4.40;1.60;;;;;;;;;;10493046;28;20135;-72
2022/05/08 14:40:16;;;;;;;2.53;1.30;;;;;;;;;;10509683;28;20036;-77
2022/05/08 14:45:16;;;;;;;2.50;1.60;;;;;;;;;;10474487;28;20025;-75
2022/05/08 14:50:17;;;;;;;3.90;1.50;;;;;;;;;;10497985;28;20031;-76
2022/05/08 14:55:17;;;;;;;6.20;2.37;;;;;;;;;;10498213;28;20431;-73
2022/05/08 15:00:17;;;;;;;2.45;1.45;;;;;;;;;;10476079;28;20046;-75
2022/05/08 15:05:18;;;;;;;6.55;1.92;;;;;;;;;;10503127;28;20020;-73
2022/05/08 15:10:19;;;;;;;3.20;1.35;;;;;;;;;;10517579;28;20044;-77
2022/05/08 15:15:19;;;;;;;9.93;1.88;;;;;;;;;;10509843;28;20111;-76
2022/05/08 15:20:19;;;;;;;4.60;1.83;;;;;;;;;;10505924;28;20471;-75
2022/05/08 15:25:20;;;;;;;3.72;1.80;;;;;;;;;;10504275;28;20033;-77
2022/05/08 15:30:20;;;;;;;2.88;1.98;;;;;;;;;;10503709;28;20032;-75
2022/05/08 15:35:20;;;;;;;3.07;1.90;;;;;;;;;;10501675;28;20056;-77
2022/05/08 15:40:21;;;;;;;5.70;1.80;;;;;;;;;;10508923;28;20685;-74
2022/05/08 15:45:21;;;;;;;2.90;1.73;;;;;;;;;;10483932;28;20415;-70
2022/05/08 15:50:21;;;;;;;7.75;2.42;;;;;;;;;;10508777;28;20034;-73
2022/05/08 15:55:26;;;;;;;5.30;2.10;;;;;;;;;;10502486;28;20118;-74
2022/05/08 16:00:26;;;;;;;10.27;2.97;;;;;;;;;;10507402;28;20032;-80
2022/05/08 16:05:27;;;;;;;5.90;2.33;;;;;;;;;;10503313;28;20035;-74
2022/05/08 16:10:27;;;;;;;3.60;1.90;;;;;;;;;;10508071;28;20035;-75
2022/05/08 16:26:06;;;;;;;5.03;2.53;;;;;;;;;;10344119;28;20649;-75
2022/05/08 16:31:07;;;;;;;5.45;2.60;;;;;;;;;;10352509;28;20710;-69
2022/05/08 16:36:07;;;;;;;5.05;2.40;;;;;;;;;;10339096;28;20038;-74
2022/05/08 16:41:07;;;;;;;3.47;1.90;;;;;;;;;;10354175;28;20029;-75
2022/05/08 16:46:08;;;;;;;5.90;2.28;;;;;;;;;;10357382;28;20277;-75
2022/05/08 16:51:08;;;;;;;5.63;2.47;;;;;;;;;;10359509;28;20034;-76
2022/05/08 16:56:08;;;;;;;13.55;6.45;;;;;;;;;;10360577;28;20036;-75
2022/05/08 17:01:09;;;;;;;3.73;2.00;;;;;;;;;;10369097;28;20116;-75
2022/05/08 17:06:09;;;;;;;2.90;1.80;;;;;;;;;;10397604;28;20939;-76
2022/05/08 17:11:09;;;;;;;4.95;2.13;;;;;;;;;;10373868;28;20284;-73
2022/05/08 17:16:10;;;;;;;3.22;2.25;;;;;;;;;;10390576;28;20394;-72
2022/05/08 17:21:10;;;;;;;5.37;2.23;;;;;;;;;;10431972;28;20624;-74
2022/05/08 17:26:13;;;;;;;7.22;2.60;;;;;;;;;;10417362;28;20016;-74
2022/05/08 17:31:13;;;;;;;4.85;2.03;;;;;;;;;;10423768;28;20512;-70
2022/05/08 17:36:14;;;;;;;6.68;2.40;;;;;;;;;;10438966;28;20030;-74
2022/05/08 17:41:14;;;;;;;3.25;2.00;;;;;;;;;;10441753;28;20025;-77
2022/05/08 17:46:18;;;;;;;4.50;2.10;;;;;;;;;;10406468;28;20029;-72
2022/05/08 17:51:18;;;;;;;6.15;2.22;;;;;;;;;;10416181;28;20032;-73
2022/05/08 17:56:19;;;;;;;1.98;1.65;;;;;;;;;;10430624;28;20051;-77
2022/05/08 18:01:19;;;;;;;5.32;1.75;;;;;;;;;;10430733;28;20052;-73
2022/05/08 18:06:19;;;;;;;6.50;1.92;;;;;;;;;;10431708;28;20029;-75
2022/05/08 18:11:19;;;;;;;4.37;1.83;;;;;;;;;;10430140;28;20048;-70
2022/05/08 18:16:20;;;;;;;4.03;1.88;;;;;;;;;;10430790;28;20451;-73
2022/05/08 18:21:20;;;;;;;4.03;1.60;;;;;;;;;;10431513;28;20049;-78
2022/05/08 18:26:21;;;;;;;4.38;2.33;;;;;;;;;;10416444;28;20043;-74
2022/05/08 18:31:21;;;;;;;3.75;2.05;;;;;;;;;;10429552;28;20099;-77
2022/05/08 18:36:21;;;;;;;4.97;2.50;;;;;;;;;;10423859;28;20573;-76
2022/05/08 18:41:22;;;;;;;5.90;2.22;;;;;;;;;;10430482;28;20033;-78
2022/05/08 18:46:24;;;;;;;5.13;1.88;;;;;;;;;;10429620;28;20036;-71
2022/05/08 18:51:24;;;;;;;4.28;2.00;;;;;;;;;;10437540;28;20074;-77
2022/05/08 18:56:24;;;;;;;4.33;2.17;;;;;;;;;;10429332;28;20029;-76
2022/05/08 19:01:24;;;;;;;3.60;2.05;;;;;;;;;;10446108;28;20033;-69
2022/05/08 19:06:25;;;;;;;1.80;1.52;;;;;;;;;;10446672;28;20041;-77
2022/05/08 19:11:25;;;;;;;3.90;2.00;;;;;;;;;;10426498;28;20033;-69
2022/05/08 19:16:26;;;;;;;2.58;1.67;;;;;;;;;;10427467;28;20029;-70
2022/05/08 19:21:27;;;;;;;3.05;1.98;;;;;;;;;;10387982;28;20513;-73
2022/05/08 19:26:27;;;;;;;7.70;1.67;;;;;;;;;;10383660;28;20038;-74
2022/05/08 19:42:05;;;;;;;3.30;2.08;;;;;;;;;;10398737;28;20490;-73
2022/05/08 19:47:15;;;;;;;6.30;1.88;;;;;;;;;;10392775;28;20044;-73
2022/05/08 19:52:20;;;;;;;4.05;2.00;;;;;;;;;;10396558;28;20025;-70
2022/05/08 19:57:21;;;;;;;2.22;1.70;;;;;;;;;;10390519;28;20060;-71
2022/05/08 20:02:23;;;;;;;4.75;1.73;;;;;;;;;;10393731;28;20128;-72
2022/05/08 20:07:25;;;;;;;3.25;2.22;;;;;;;;;;10394787;28;20034;-73
2022/05/08 20:12:25;;;;;;;5.13;2.20;;;;;;;;;;10394145;28;20472;-74
2022/05/08 20:17:26;;;;;;;4.03;2.05;;;;;;;;;;10385080;28;20134;-74
2022/05/08 20:22:26;;;;;;;5.63;2.40;;;;;;;;;;10408813;28;20120;-69
2022/05/08 20:27:26;;;;;;;3.28;1.85;;;;;;;;;;10403489;28;20040;-70
2022/05/08 20:32:26;;;;;;;5.13;1.92;;;;;;;;;;10412660;28;20507;-71
2022/05/08 20:37:27;;;;;;;7.13;2.28;;;;;;;;;;10412706;28;20104;-69
2022/05/08 20:42:27;;;;;;;5.60;2.20;;;;;;;;;;10423847;28;20056;-74
2022/05/08 20:47:30;;;;;;;4.18;2.22;;;;;;;;;;10419387;28;20029;-69
2022/05/08 20:52:31;;;;;;;8.57;2.53;;;;;;;;;;10417934;28;20393;-71
2022/05/08 20:57:31;;;;;;;6.35;2.40;;;;;;;;;;10425001;28;20067;-68
2022/05/08 21:02:31;;;;;;;4.75;2.58;;;;;;;;;;10424672;28;20315;-74
2022/05/08 21:12:50;;;;;;;3.58;2.28;;;;;;;;;;10442288;28;20025;-70
2022/05/08 21:17:51;;;;;;;3.45;1.85;;;;;;;;;;10423781;28;20048;-73
2022/05/08 21:22:51;;;;;;;4.20;2.97;;;;;;;;;;10424199;28;20551;-73
2022/05/08 21:27:51;;;;;;;6.32;2.67;;;;;;;;;;10412870;28;20416;-69
2022/05/08 21:32:52;;;;;;;5.05;2.67;;;;;;;;;;10442715;28;20044;-70
2022/05/08 21:37:53;;;;;;;5.72;2.83;;;;;;;;;;10436188;28;20477;-73
2022/05/08 21:42:53;;;;;;;5.00;2.37;;;;;;;;;;10408000;28;20028;-73
2022/05/08 21:47:53;;;;;;;7.85;2.70;;;;;;;;;;10423754;28;20263;-70
2022/05/08 21:52:53;;;;;;;4.00;1.98;;;;;;;;;;10423512;28;20035;-73
2022/05/08 21:57:54;;;;;;;6.57;2.75;;;;;;;;;;10441207;28;20040;-70
2022/05/08 22:02:54;;;;;;;4.13;2.10;;;;;;;;;;10422329;28;20059;-75
2022/05/08 22:07:54;;;;;;;3.13;2.20;;;;;;;;;;10412262;28;20104;-74
2022/05/08 22:12:55;;;;;;;5.72;3.08;;;;;;;;;;10440777;28;20492;-74
2022/05/08 22:17:55;;;;;;;4.63;2.45;;;;;;;;;;10440585;28;20059;-77
2022/05/08 22:22:55;;;;;;;4.63;2.50;;;;;;;;;;10422906;28;20025;-73
2022/05/08 22:27:56;;;;;;;6.57;3.00;;;;;;;;;;10421582;28;20021;-71
2022/05/08 22:32:56;;;;;;;4.18;2.78;;;;;;;;;;10442177;28;20019;-71
2022/05/08 22:37:57;;;;;;;4.70;2.58;;;;;;;;;;10463964;23;20045;-71
2022/05/08 22:42:57;;;;;;;6.45;2.75;;;;;;;;;;10448503;28;20424;-71
2022/05/08 22:47:57;;;;;;;5.63;2.47;;;;;;;;;;10448501;28;20466;-71
2022/05/08 22:52:57;;;;;;;6.15;2.75;;;;;;;;;;10447834;28;20059;-71
2022/05/08 22:57:58;;;;;;;9.70;2.88;;;;;;;;;;10447381;28;20024;-71
2022/05/08 23:02:58;;;;;;;4.23;2.70;;;;;;;;;;10467285;28;20036;-71
2022/05/08 23:07:58;;;;;;;4.63;2.60;;;;;;;;;;10472050;28;20024;-73
2022/05/08 23:12:59;;;;;;;6.60;2.53;;;;;;;;;;10471685;28;20573;-70
2022/05/08 23:18:00;;;;;;;4.15;2.88;;;;;;;;;;10489292;28;20032;-74
2022/05/08 23:23:01;;;;;;;4.25;2.92;;;;;;;;;;10488019;28;20017;-67
2022/05/08 23:28:01;;;;;;;6.15;2.88;;;;;;;;;;10489027;28;20016;-70
2022/05/08 23:33:02;;;;;;;10.10;2.65;;;;;;;;;;10469715;28;20017;-71
2022/05/08 23:38:03;;;;;;;6.73;2.73;;;;;;;;;;10488612;28;20519;-74
2022/05/08 23:43:03;;;;;;;9.57;3.42;;;;;;;;;;10488302;28;20526;-70
2022/05/08 23:48:03;;;;;;;5.87;3.00;;;;;;;;;;10469390;28;20624;-74
2022/05/08 23:53:04;;;;;;;8.13;3.37;;;;;;;;;;10469774;28;20349;-70
2022/05/08 23:58:04;;;;;;;4.80;3.03;;;;;;;;;;10486580;28;20065;-71
